Terminal Aerodrome Forecast
Issued by NWS Topeka, KS

Home | Current Version | Previous Version | Text Only | Print | Product List | Glossary On
Versions: 1 2 3 4 5 6 7 8 9 10 11 12 13 14 15 16 17 18 19 20 21 22 23 24 25 26 27
000
FTUS43 KTOP 241700
TAFTOP
TAF
KTOP 241720Z 2418/2518 07010KT 4SM -SHRA BR SCT007 BKN013 OVC020
      TEMPO 2420/2422 -TSRA SCT007 BKN011 OVC020CB
     FM250100 19003KT P6SM FEW025 SCT150
     FM250700 00000KT 3SM BR FEW001
     FM251200 17005KT 6SM BR BKN100=

USA.gov is the U.S. government's official web portal to all federal, state and local government web resources and services.